Time;durP1;ratioP1;P1;durP2;ratioP2;P2;SDS_P1;SDS_P2;PMS_P1;PMS_P2;Temp;Humidity;BMP_temperature;BMP_pressure;BME280_temperature;BME280_humidity;BME280_pressure;Samples;Min_cycle;Max_cycle;Signal;HPM_P1;HPM_P2
2023/07/06 00:01:42;;;;;;;;;21.33;20.00;;;;;22.62;66.84;100674.66;110208;1250;20046;-38
2023/07/06 00:04:10;;;;;;;;;24.00;20.00;;;;;22.62;66.94;100675.37;110247;1249;20058;-38
2023/07/06 00:06:37;;;;;;;;;25.50;23.00;;;;;22.63;66.91;100674.46;110198;1250;20709;-38
2023/07/06 00:09:06;;;;;;;;;26.00;23.00;;;;;22.62;66.79;100674.36;110272;1264;18902;-38
2023/07/06 00:11:34;;;;;;;;;26.00;22.00;;;;;22.60;66.97;100670.10;110291;1249;18815;-38
2023/07/06 00:14:02;;;;;;;;;20.67;20.00;;;;;22.62;66.88;100678.61;110192;1250;20732;-37
2023/07/06 00:16:30;;;;;;;;;22.00;22.00;;;;;22.58;66.70;100681.67;110201;1250;20252;-38
2023/07/06 00:18:58;;;;;;;;;24.00;20.00;;;;;22.54;66.84;100689.43;110275;1265;18920;-38
2023/07/06 00:21:25;;;;;;;;;22.50;21.00;;;;;22.52;67.07;100690.23;110186;1250;21650;-38
2023/07/06 00:23:53;;;;;;;;;26.00;26.00;;;;;22.53;66.91;100685.79;110239;1264;22156;-38
2023/07/06 00:26:21;;;;;;;;;25.00;22.00;;;;;22.52;66.83;100683.48;110180;1250;20201;-38
2023/07/06 00:28:49;;;;;;;;;26.00;24.00;;;;;22.54;66.69;100688.86;110214;1257;19403;-38
2023/07/06 00:31:31;;;;;;;;;25.67;24.33;;;;;22.58;66.50;100688.05;110219;1264;18596;-40
2023/07/06 00:34:03;;;;;;;;;26.00;23.00;;;;;22.57;66.34;100697.11;110223;1264;18753;-38
2023/07/06 00:36:30;;;;;;;;;23.00;22.00;;;;;22.55;66.47;100697.17;110191;1249;22598;-37
2023/07/06 00:39:01;;;;;;;;;18.00;17.00;;;;;22.53;66.28;100700.00;110194;1249;20021;-38
2023/07/06 00:41:29;;;;;;;;;23.00;21.33;;;;;22.50;66.55;100696.73;110246;1249;20151;-38
2023/07/06 00:43:56;;;;;;;;;24.00;20.00;;;;;22.52;66.40;100703.27;110202;1250;22046;-37
2023/07/06 00:46:24;;;;;;;;;21.67;19.00;;;;;22.49;66.30;100704.12;110220;1265;18601;-38
2023/07/06 00:48:51;;;;;;;;;19.00;18.50;;;;;22.51;66.15;100705.73;110202;1264;18728;-38
2023/07/06 00:51:19;;;;;;;;;22.00;19.33;;;;;22.51;66.02;100698.55;110205;1250;20677;-38
2023/07/06 00:53:46;;;;;;;;;19.50;19.00;;;;;22.46;66.29;100698.45;110168;1264;22242;-37
2023/07/06 00:56:16;;;;;;;;;23.00;21.00;;;;;22.43;65.99;100698.53;110207;1250;20181;-39
2023/07/06 00:58:44;;;;;;;;;19.00;18.33;;;;;22.40;66.12;100693.94;110195;1256;20942;-38
2023/07/06 01:01:11;;;;;;;;;21.00;18.50;;;;;22.40;65.94;100698.91;110232;1256;20085;-38
2023/07/06 01:03:44;;;;;;;;;19.00;18.00;;;;;22.37;65.89;100704.71;110244;1263;20004;-38
2023/07/06 01:06:11;;;;;;;;;21.00;19.50;;;;;22.35;65.79;100705.05;110216;1250;22192;-38
2023/07/06 01:08:38;;;;;;;;;16.00;16.00;;;;;22.37;65.85;100706.18;110169;1264;18580;-38
2023/07/06 01:11:08;;;;;;;;;23.00;20.00;;;;;22.31;65.68;100708.48;110198;1250;22646;-39
2023/07/06 01:13:35;;;;;;;;;19.00;19.00;;;;;22.29;65.51;100710.25;110202;1260;20705;-39
2023/07/06 01:16:02;;;;;;;;;18.00;17.00;;;;;22.30;65.59;100714.85;110180;1250;19982;-39
2023/07/06 01:18:30;;;;;;;;;20.00;19.00;;;;;22.26;65.32;100711.27;110202;1256;20089;-38
2023/07/06 01:20:58;;;;;;;;;20.00;20.00;;;;;22.24;65.25;100716.90;110189;1250;20805;-37
2023/07/06 01:23:25;;;;;;;;;20.50;18.00;;;;;22.26;64.83;100718.23;110192;1249;21837;-38
2023/07/06 01:25:53;;;;;;;;;19.50;18.50;;;;;22.26;64.75;100714.66;110233;1250;20277;-38
2023/07/06 01:28:20;;;;;;;;;19.00;19.00;;;;;22.28;64.72;100718.39;110148;1256;20628;-38
2023/07/06 01:30:47;;;;;;;;;22.00;19.00;;;;;22.24;64.62;100717.98;110272;1250;20083;-38
2023/07/06 01:33:15;;;;;;;;;18.00;17.33;;;;;22.21;64.52;100722.63;110267;1256;20450;-38
2023/07/06 01:35:43;;;;;;;;;20.00;18.00;;;;;22.23;64.34;100717.20;110237;1256;20618;-38
2023/07/06 01:38:11;;;;;;;;;19.00;17.00;;;;;22.20;64.19;100714.45;110198;1250;21082;-39
2023/07/06 01:40:40;;;;;;;;;19.00;16.00;;;;;22.20;64.24;100717.60;110172;1256;20052;-39
2023/07/06 01:43:07;;;;;;;;;18.00;18.00;;;;;22.23;64.10;100716.48;110189;1250;20723;-39
2023/07/06 01:45:35;;;;;;;;;18.67;16.00;;;;;22.17;64.05;100720.66;110192;1265;19981;-39
2023/07/06 01:48:02;;;;;;;;;21.00;19.33;;;;;22.16;63.87;100720.63;110168;1250;18770;-38
2023/07/06 01:50:30;;;;;;;;;22.00;18.00;;;;;22.15;63.83;100728.36;110205;1250;20751;-38
2023/07/06 01:52:58;;;;;;;;;18.50;18.00;;;;;22.11;63.72;100725.86;110173;1250;20001;-39
2023/07/06 01:55:25;;;;;;;;;19.00;18.00;;;;;22.09;63.89;100724.61;110196;1249;20291;-38
2023/07/06 01:57:52;;;;;;;;;29.50;21.00;;;;;22.02;63.79;100726.40;110189;1256;20683;-38
2023/07/06 02:00:20;;;;;;;;;19.00;18.00;;;;;22.00;64.05;100724.09;110175;1250;20113;-38
2023/07/06 02:02:48;;;;;;;;;18.67;17.33;;;;;21.94;63.80;100728.70;110172;1264;18922;-38
2023/07/06 02:05:16;;;;;;;;;18.00;18.00;;;;;21.95;63.93;100725.66;110258;1256;20583;-38
2023/07/06 02:07:43;;;;;;;;;17.67;15.67;;;;;21.95;63.60;100724.66;110203;1250;20034;-38
2023/07/06 02:10:11;;;;;;;;;18.00;16.00;;;;;21.93;63.82;100728.44;110198;1251;20116;-38
2023/07/06 02:12:38;;;;;;;;;19.00;19.00;;;;;21.93;63.62;100735.36;110197;1264;20879;-37
2023/07/06 02:15:06;;;;;;;;;19.00;16.00;;;;;21.92;63.59;100729.51;110176;1256;19989;-38
2023/07/06 02:17:34;;;;;;;;;25.00;21.00;;;;;21.89;63.55;100735.48;110168;1249;18731;-39
2023/07/06 02:20:01;;;;;;;;;23.00;19.00;;;;;21.87;63.64;100735.48;110176;1250;21569;-39
2023/07/06 02:22:29;;;;;;;;;21.00;19.00;;;;;21.88;63.62;100732.42;110186;1251;20009;-39
2023/07/06 02:24:56;;;;;;;;;18.00;18.00;;;;;21.87;63.50;100734.46;110160;1264;21846;-38
2023/07/06 02:27:24;;;;;;;;;19.00;18.00;;;;;21.86;63.43;100741.80;110128;1264;22726;-38
2023/07/06 02:29:52;;;;;;;;;22.00;19.00;;;;;21.85;63.23;100741.38;110158;1250;20079;-38
2023/07/06 02:32:19;;;;;;;;;19.00;18.00;;;;;21.79;63.31;100740.80;110189;1264;18788;-38
2023/07/06 02:34:46;;;;;;;;;21.00;19.00;;;;;21.78;63.49;100747.16;110176;1264;19317;-38
2023/07/06 02:37:14;;;;;;;;;19.00;18.00;;;;;21.77;63.15;100758.86;110178;1256;21178;-38
2023/07/06 02:39:42;;;;;;;;;21.00;21.00;;;;;21.73;63.26;100761.69;110138;1250;20310;-38
2023/07/06 02:42:14;;;;;;;;;18.00;18.00;;;;;21.72;63.40;100763.77;110147;1249;20761;-38
2023/07/06 02:44:43;;;;;;;;;24.00;19.00;;;;;21.73;63.39;100764.45;110147;1265;19959;-39
2023/07/06 02:47:10;;;;;;;;;19.67;18.00;;;;;21.76;63.14;100766.34;110099;1256;20026;-38
2023/07/06 02:49:38;;;;;;;;;17.00;17.00;;;;;21.73;63.11;100767.63;110190;1264;19396;-38
2023/07/06 02:52:06;;;;;;;;;19.00;18.00;;;;;21.69;63.13;100767.47;110261;1264;22146;-38
2023/07/06 02:54:33;;;;;;;;;18.00;16.00;;;;;21.73;63.21;100761.42;110169;1264;18673;-38
2023/07/06 02:57:01;;;;;;;;;18.00;17.50;;;;;21.71;63.03;100763.23;110160;1265;21684;-38
2023/07/06 02:59:29;;;;;;;;;18.00;16.00;;;;;21.70;63.04;100760.99;110256;1250;21293;-38
2023/07/06 03:01:58;;;;;;;;;20.00;16.00;;;;;21.65;63.11;100762.34;110213;1250;20127;-38
2023/07/06 03:04:27;;;;;;;;;29.00;26.00;;;;;21.69;62.90;100766.43;110183;1249;20739;-38
2023/07/06 03:06:55;;;;;;;;;32.00;31.00;;;;;21.74;62.95;100765.94;110175;1257;19814;-38
2023/07/06 03:09:23;;;;;;;;;35.00;32.00;;;;;21.72;62.79;100771.52;110233;1250;22053;-38
2023/07/06 03:11:52;;;;;;;;;33.00;31.00;;;;;21.66;62.87;100776.45;110181;1265;19533;-38
2023/07/06 03:14:22;;;;;;;;;28.00;24.00;;;;;21.66;62.77;100782.58;110151;1250;20830;-38
2023/07/06 03:16:49;;;;;;;;;23.00;22.00;;;;;21.67;62.78;100786.86;110231;1264;22323;-38
2023/07/06 03:19:17;;;;;;;;;22.00;21.00;;;;;21.65;62.89;100785.45;110241;1250;20718;-38
2023/07/06 03:21:44;;;;;;;;;21.00;21.00;;;;;21.64;63.02;100790.85;110203;1257;19891;-38
2023/07/06 03:24:12;;;;;;;;;21.33;20.00;;;;;21.59;62.93;100789.21;110167;1264;18646;-39
2023/07/06 03:26:40;;;;;;;;;17.00;17.00;;;;;21.52;62.96;100800.40;110160;1264;19511;-39
2023/07/06 03:29:08;;;;;;;;;;;;;;;21.52;62.76;100800.98;110169;1248;20037;-36
2023/07/06 03:31:35;;;;;;;;;24.67;23.33;;;;;21.46;62.93;100804.40;110168;1257;19485;-38
2023/07/06 03:34:02;;;;;;;;;21.00;19.50;;;;;21.44;62.92;100806.45;110161;1249;21008;-39
2023/07/06 03:36:31;;;;;;;;;20.00;19.00;;;;;21.47;62.84;100804.05;110194;1264;18601;-37
2023/07/06 03:38:58;;;;;;;;;21.50;19.50;;;;;21.47;62.61;100810.31;110196;1264;20447;-38
2023/07/06 03:41:26;;;;;;;;;29.50;27.00;;;;;21.45;62.50;100805.79;110188;1265;19360;-38
2023/07/06 03:43:56;;;;;;;;;25.33;24.00;;;;;21.45;62.51;100814.35;110166;1251;21264;-38
2023/07/06 03:46:23;;;;;;;;;24.00;22.00;;;;;21.43;62.49;100820.70;110184;1257;19907;-38
2023/07/06 03:48:51;;;;;;;;;28.00;25.00;;;;;21.37;62.47;100823.06;110263;1264;19364;-38
2023/07/06 03:51:18;;;;;;;;;21.00;20.00;;;;;21.35;62.47;100826.88;110198;1264;18634;-38
2023/07/06 03:53:47;;;;;;;;;24.00;24.00;;;;;21.38;62.09;100830.96;110182;1250;20311;-38
2023/07/06 03:56:15;;;;;;;;;23.00;23.00;;;;;21.33;62.16;100840.98;110215;1249;19362;-38
2023/07/06 03:58:42;;;;;;;;;20.50;20.50;;;;;21.32;62.01;100845.85;110179;1256;19878;-39
2023/07/06 04:01:10;;;;;;;;;24.00;24.00;;;;;21.36;62.18;100849.23;110176;1256;20041;-38
2023/07/06 04:03:37;;;;;;;;;25.00;24.00;;;;;21.40;61.92;100853.27;110172;1264;19718;-39
2023/07/06 04:06:05;;;;;;;;;25.00;24.50;;;;;21.40;61.61;100852.59;110229;1250;22961;-38
2023/07/06 04:08:32;;;;;;;;;30.00;28.00;;;;;21.40;61.59;100854.96;110194;1256;20034;-38
2023/07/06 04:11:00;;;;;;;;;25.00;24.00;;;;;21.42;61.48;100858.38;110197;1250;21921;-38
2023/07/06 04:13:29;;;;;;;;;26.00;23.00;;;;;21.41;61.33;100859.71;110212;1251;22261;-37
2023/07/06 04:15:57;;;;;;;;;24.00;21.00;;;;;21.43;61.33;100867.27;110203;1250;20184;-37
2023/07/06 04:18:24;;;;;;;;;20.50;17.00;;;;;21.39;61.22;100870.91;110171;1256;20541;-37
2023/07/06 04:20:53;;;;;;;;;24.00;21.00;;;;;21.38;60.82;100866.74;110203;1264;18731;-38
2023/07/06 04:23:20;;;;;;;;;18.00;17.00;;;;;21.35;60.31;100863.89;110189;1264;18748;-38
2023/07/06 04:25:48;;;;;;;;;21.00;20.00;;;;;21.36;59.56;100869.73;110202;1250;22102;-37
2023/07/06 04:28:15;;;;;;;;;25.00;21.00;;;;;21.37;59.05;100868.59;110199;1250;20027;-39
2023/07/06 04:30:42;;;;;;;;;25.00;24.00;;;;;21.40;58.44;100870.31;110199;1264;20135;-38
2023/07/06 04:33:10;;;;;;;;;17.00;17.00;;;;;21.36;57.75;100873.34;110215;1250;20659;-37
2023/07/06 04:35:38;;;;;;;;;16.00;14.50;;;;;21.43;57.18;100874.73;110223;1250;19988;-38
2023/07/06 04:38:05;;;;;;;;;14.00;12.00;;;;;21.42;56.90;100876.48;110193;1265;18726;-39
2023/07/06 04:40:34;;;;;;;;;18.00;16.00;;;;;21.42;56.69;100878.83;110199;1256;20835;-38
2023/07/06 04:43:01;;;;;;;;;17.50;16.00;;;;;21.44;56.14;100874.38;110197;1249;22329;-38
2023/07/06 04:45:28;;;;;;;;;12.00;12.00;;;;;21.42;55.98;100873.79;110168;1264;18823;-38
2023/07/06 04:47:56;;;;;;;;;14.00;14.00;;;;;21.43;55.90;100874.94;110170;1264;19527;-38
2023/07/06 04:50:24;;;;;;;;;13.00;12.00;;;;;21.42;55.75;100876.71;110208;1261;20052;-37
2023/07/06 04:52:53;;;;;;;;;8.00;8.00;;;;;21.69;55.59;100875.39;110175;1256;20316;-37
2023/07/06 04:55:23;;;;;;;;;14.00;14.00;;;;;22.01;55.28;100877.68;110263;1264;19383;-38
2023/07/06 04:57:51;;;;;;;;;10.67;9.00;;;;;22.21;55.09;100878.70;110186;1250;19670;-38
2023/07/06 05:00:24;;;;;;;;;10.00;9.00;;;;;22.32;54.87;100880.85;110174;1250;19967;-37
2023/07/06 05:02:52;;;;;;;;;7.00;7.00;;;;;22.41;54.63;100881.73;109643;1266;20671;-38
2023/07/06 05:05:20;;;;;;;;;8.00;5.00;;;;;22.48;54.44;100881.30;110194;1250;20007;-38
2023/07/06 05:07:47;;;;;;;;;8.00;8.00;;;;;22.53;54.47;100883.73;110229;1250;20781;-38
2023/07/06 05:10:14;;;;;;;;;5.00;5.00;;;;;22.56;54.31;100888.28;110204;1264;19343;-38
2023/07/06 05:12:42;;;;;;;;;6.00;6.00;;;;;22.60;54.10;100893.23;110177;1264;18516;-38
2023/07/06 05:15:09;;;;;;;;;6.00;6.00;;;;;22.63;53.94;100894.18;110189;1250;20029;-38
2023/07/06 05:17:38;;;;;;;;;6.00;6.00;;;;;22.68;53.88;100892.88;110125;1264;19380;-38
2023/07/06 05:20:06;;;;;;;;;6.00;6.00;;;;;22.73;53.76;100897.59;110187;1256;19561;-39
2023/07/06 05:22:38;;;;;;;;;8.50;8.50;;;;;22.79;53.35;100906.64;110240;1249;22648;-38
2023/07/06 05:25:06;;;;;;;;;7.33;6.67;;;;;22.87;53.30;100908.21;110205;1264;19333;-39
2023/07/06 05:27:33;;;;;;;;;8.50;8.00;;;;;22.81;52.84;100907.67;109994;1264;18527;-39
2023/07/06 05:30:00;;;;;;;;;11.00;11.00;;;;;22.64;52.41;100906.57;110193;1256;19977;-37
2023/07/06 05:32:28;;;;;;;;;6.00;6.00;;;;;22.56;52.34;100907.74;110162;1250;20752;-38
2023/07/06 05:34:55;;;;;;;;;8.00;8.00;;;;;22.70;52.49;100909.16;110236;1264;19957;-38
2023/07/06 05:37:23;;;;;;;;;8.00;8.00;;;;;22.78;52.29;100905.23;110169;1250;20977;-37
2023/07/06 05:39:50;;;;;;;;;6.00;5.50;;;;;22.84;52.37;100918.04;110181;1264;19456;-38
2023/07/06 05:42:18;;;;;;;;;6.00;6.00;;;;;22.88;52.16;100918.15;110170;1264;18307;-39
2023/07/06 05:44:46;;;;;;;;;6.00;5.50;;;;;22.93;51.94;100918.27;110176;1250;20069;-38
2023/07/06 05:47:13;;;;;;;;;5.67;5.67;;;;;22.94;52.04;100918.28;110197;1264;19202;-38
2023/07/06 05:49:41;;;;;;;;;6.00;5.00;;;;;22.95;51.97;100916.66;110194;1250;19713;-37
2023/07/06 05:52:08;;;;;;;;;6.00;6.00;;;;;22.97;51.65;100915.36;110279;1250;22137;-38
2023/07/06 05:54:35;;;;;;;;;5.00;5.00;;;;;22.99;51.60;100919.54;110173;1264;20298;-38
2023/07/06 05:57:03;;;;;;;;;5.00;5.00;;;;;23.00;51.28;100922.60;110188;1250;21434;-38
2023/07/06 05:59:31;;;;;;;;;5.00;5.00;;;;;23.03;51.04;100924.69;110303;1264;18579;-38
2023/07/06 06:01:59;;;;;;;;;5.00;5.00;;;;;23.04;50.72;100921.64;110199;1250;20685;-38
2023/07/06 06:04:27;;;;;;;;;6.50;5.50;;;;;23.07;50.31;100925.83;110183;1256;19484;-38
2023/07/06 06:06:55;;;;;;;;;6.00;6.00;;;;;23.12;50.34;100933.59;110144;1265;20035;-38
2023/07/06 06:09:23;;;;;;;;;4.00;4.00;;;;;23.13;50.21;100939.28;110222;1249;22176;-39
2023/07/06 06:11:50;;;;;;;;;5.00;5.00;;;;;23.14;49.91;100943.58;110255;1264;18342;-39
2023/07/06 06:14:18;;;;;;;;;7.00;7.00;;;;;23.16;49.52;100948.06;110199;1264;19887;-38
2023/07/06 06:16:45;;;;;;;;;4.00;4.00;;;;;23.18;49.29;100949.75;110175;1249;20803;-38
2023/07/06 06:19:13;;;;;;;;;5.50;5.50;;;;;23.19;49.16;100954.90;110260;1250;19522;-38
2023/07/06 06:21:40;;;;;;;;;4.50;4.50;;;;;23.21;48.88;100957.45;110176;1264;20378;-38
2023/07/06 06:24:08;;;;;;;;;5.00;5.00;;;;;23.25;48.94;100958.30;110198;1250;20730;-38
2023/07/06 06:26:35;;;;;;;;;6.50;5.50;;;;;23.26;48.93;100954.44;110213;1264;18519;-38
2023/07/06 06:29:03;;;;;;;;;7.33;6.00;;;;;23.29;48.66;100948.50;110213;1250;20069;-38
2023/07/06 06:31:30;;;;;;;;;6.00;6.00;;;;;23.29;48.52;100955.20;110184;1265;22216;-38
2023/07/06 06:33:58;;;;;;;;;8.00;7.00;;;;;23.30;48.55;100956.92;110202;1250;19655;-37
2023/07/06 06:36:25;;;;;;;;;5.00;5.00;;;;;23.30;48.19;100959.66;110221;1264;18603;-37
2023/07/06 06:38:54;;;;;;;;;6.00;6.00;;;;;23.31;48.21;100963.59;110199;1264;19334;-37
2023/07/06 06:41:22;;;;;;;;;5.50;5.00;;;;;23.31;48.12;100971.34;110250;1250;18437;-37
2023/07/06 06:43:49;;;;;;;;;8.00;6.00;;;;;23.32;47.84;100974.89;110217;1264;19033;-39
2023/07/06 06:46:17;;;;;;;;;6.00;5.00;;;;;23.33;47.68;100968.35;110118;1256;20641;-38
2023/07/06 06:48:44;;;;;;;;;4.50;4.50;;;;;23.36;47.65;100967.13;110187;1265;19556;-38
2023/07/06 06:51:12;;;;;;;;;8.00;6.00;;;;;23.35;47.46;100968.16;110201;1250;20080;-38
2023/07/06 06:53:39;;;;;;;;;5.50;5.50;;;;;23.26;46.86;100971.52;110208;1264;19591;-38
2023/07/06 06:56:07;;;;;;;;;5.50;5.50;;;;;23.19;46.69;100976.27;110180;1264;19871;-39
2023/07/06 06:58:35;;;;;;;;;8.00;8.00;;;;;23.14;46.05;100977.75;110214;1249;20304;-39
2023/07/06 07:01:02;;;;;;;;;6.00;6.00;;;;;23.12;45.50;100976.06;110200;1249;22019;-39
2023/07/06 07:03:30;;;;;;;;;6.00;6.00;;;;;23.09;44.99;100970.64;109868;1249;478502;-40
2023/07/06 07:05:57;;;;;;;;;7.00;5.50;;;;;23.11;44.69;100968.45;110263;1256;20385;-39
2023/07/06 07:08:25;;;;;;;;;8.00;7.00;;;;;23.12;44.47;100976.70;110245;1256;20888;-39
2023/07/06 07:10:52;;;;;;;;;8.00;6.00;;;;;23.13;44.27;100985.35;110101;1250;19643;-39
2023/07/06 07:13:20;;;;;;;;;5.00;5.00;;;;;23.13;43.56;100983.50;110218;1256;19923;-39
2023/07/06 07:15:47;;;;;;;;;6.00;6.00;;;;;23.11;43.29;100986.77;110114;1265;19412;-40
2023/07/06 07:18:15;;;;;;;;;8.00;6.00;;;;;23.23;43.64;100987.50;110192;1250;19611;-39
2023/07/06 07:20:43;;;;;;;;;5.50;5.00;;;;;23.33;43.67;100985.39;110249;1257;19955;-40
2023/07/06 07:23:11;;;;;;;;;6.00;4.50;;;;;23.37;43.78;100990.74;110218;1248;21099;-40
2023/07/06 07:25:41;;;;;;;;;27.00;23.00;;;;;23.31;43.54;100987.92;110187;1250;20787;-40
2023/07/06 07:28:08;;;;;;;;;96.50;71.00;;;;;23.34;43.69;100993.73;110200;1264;20177;-39
2023/07/06 07:30:35;;;;;;;;;69.00;49.00;;;;;23.41;44.20;100996.91;110212;1264;22185;-41
2023/07/06 07:33:03;;;;;;;;;89.33;67.00;;;;;23.45;44.65;101006.64;110195;1250;20016;-39
2023/07/06 07:35:31;;;;;;;;;71.00;54.00;;;;;23.49;45.23;101005.95;110219;1250;20276;-39
2023/07/06 07:37:58;;;;;;;;;60.00;43.00;;;;;23.53;45.48;101013.32;110182;1264;19299;-39
2023/07/06 07:40:26;;;;;;;;;39.67;34.00;;;;;23.56;45.52;101014.42;110098;1265;19090;-40
2023/07/06 07:42:53;;;;;;;;;17.00;17.00;;;;;23.52;45.49;101021.31;110180;1264;20192;-40
2023/07/06 07:45:21;;;;;;;;;17.50;14.00;;;;;23.40;44.89;101022.60;110215;1249;20790;-40
2023/07/06 07:47:48;;;;;;;;;10.00;10.00;;;;;23.32;44.60;101022.61;110184;1264;20317;-40
2023/07/06 07:50:17;;;;;;;;;11.00;10.00;;;;;23.24;44.12;101031.48;110197;1264;20067;-40
2023/07/06 07:52:45;;;;;;;;;8.50;8.00;;;;;23.17;43.72;101032.30;110223;1264;19575;-40
2023/07/06 07:55:12;;;;;;;;;7.00;7.00;;;;;23.14;43.58;101031.02;110139;1264;18572;-41
2023/07/06 07:57:40;;;;;;;;;9.00;6.00;;;;;23.07;43.42;101028.06;110191;1250;19865;-40
2023/07/06 08:00:09;;;;;;;;;6.00;5.00;;;;;23.04;43.05;101032.80;110204;1264;19710;-40
2023/07/06 08:02:37;;;;;;;;;8.00;8.00;;;;;23.03;42.79;101039.48;110134;1265;18502;-39
2023/07/06 08:05:09;;;;;;;;;5.00;5.00;;;;;22.98;42.41;101037.80;110159;1249;22620;-40
2023/07/06 08:07:36;;;;;;;;;5.33;5.33;;;;;22.93;42.39;101045.82;110211;1264;19314;-39
2023/07/06 08:10:04;;;;;;;;;8.00;8.00;;;;;22.91;42.42;101046.26;110280;1257;18370;-39
2023/07/06 08:12:32;;;;;;;;;5.50;5.50;;;;;22.88;42.62;101044.35;110191;1265;22899;-40
2023/07/06 08:15:03;;;;;;;;;6.00;6.00;;;;;22.86;42.52;101047.15;110210;1265;19227;-40
2023/07/06 08:17:30;;;;;;;;;5.00;5.00;;;;;22.88;42.72;101050.95;110202;1251;18600;-44
2023/07/06 08:19:58;;;;;;;;;5.00;5.00;;;;;22.91;42.62;101043.23;110220;1256;18649;-41
2023/07/06 08:22:25;;;;;;;;;8.00;6.00;;;;;22.95;42.94;101042.84;110253;1264;19725;-38
2023/07/06 08:24:53;;;;;;;;;7.00;6.00;;;;;22.95;43.24;101041.73;110121;1265;18614;-41
2023/07/06 08:27:21;;;;;;;;;5.00;5.00;;;;;22.98;43.32;101040.79;110194;1264;18647;-40
2023/07/06 08:29:49;;;;;;;;;6.00;5.00;;;;;23.02;43.60;101041.13;110208;1264;19354;-40
2023/07/06 08:32:19;;;;;;;;;4.00;4.00;;;;;23.01;43.63;101040.09;110181;1264;19891;-41
2023/07/06 08:34:47;;;;;;;;;5.00;5.00;;;;;22.99;43.76;101042.56;110205;1257;20609;-42
2023/07/06 08:37:18;;;;;;;;;6.00;6.00;;;;;22.98;43.99;101044.44;110232;1250;20856;-40
2023/07/06 08:39:45;;;;;;;;;8.00;8.00;;;;;22.97;44.17;101048.46;110225;1250;19599;-40
2023/07/06 08:42:14;;;;;;;;;6.00;6.00;;;;;22.95;44.35;101046.63;110272;1249;19932;-40
2023/07/06 08:44:41;;;;;;;;;8.00;6.00;;;;;22.96;44.29;101045.60;110145;1250;20768;-39
2023/07/06 08:47:09;;;;;;;;;8.00;8.00;;;;;22.95;44.44;101045.05;110267;1256;23183;-39
2023/07/06 08:49:37;;;;;;;;;5.50;5.50;;;;;22.97;44.53;101049.72;110293;1256;19994;-39
2023/07/06 08:52:05;;;;;;;;;6.00;6.00;;;;;22.95;44.64;101049.23;110292;1250;20830;-40
2023/07/06 08:54:32;;;;;;;;;6.00;6.00;;;;;22.94;44.87;101044.02;110272;1265;18321;-39
2023/07/06 08:57:00;;;;;;;;;5.00;5.00;;;;;22.94;45.03;101046.73;110193;1249;20039;-40
2023/07/06 08:59:28;;;;;;;;;6.00;6.00;;;;;22.92;44.97;101048.05;110126;1250;19332;-40
2023/07/06 09:01:55;;;;;;;;;6.00;6.00;;;;;22.92;45.11;101050.05;110213;1251;19733;-40
2023/07/06 09:04:24;;;;;;;;;5.00;5.00;;;;;22.94;45.12;101056.40;110209;1249;20458;-40
2023/07/06 09:06:52;;;;;;;;;5.00;5.00;;;;;23.00;45.14;101053.31;110185;1265;19366;-39
2023/07/06 09:09:20;;;;;;;;;6.00;6.00;;;;;22.97;45.44;101054.05;110229;1264;18701;-39
2023/07/06 09:11:47;;;;;;;;;6.00;6.00;;;;;22.94;45.27;101053.88;110205;1265;18913;-40
2023/07/06 09:14:16;;;;;;;;;8.50;6.00;;;;;22.95;45.38;101053.70;110091;1250;20773;-39
2023/07/06 09:16:43;;;;;;;;;9.00;8.00;;;;;23.04;45.55;101054.55;110142;1249;21134;-40
2023/07/06 09:19:11;;;;;;;;;6.00;6.00;;;;;23.03;45.50;101060.09;110136;1250;20018;-38
2023/07/06 09:21:39;;;;;;;;;5.00;5.00;;;;;23.01;45.81;101062.87;110125;1264;19354;-38
2023/07/06 09:24:06;;;;;;;;;6.00;6.00;;;;;23.08;45.77;101069.13;110107;1250;18562;-40
2023/07/06 09:26:34;;;;;;;;;6.00;6.00;;;;;23.10;45.24;101070.71;110124;1264;22357;-39
2023/07/06 09:29:01;;;;;;;;;8.00;6.00;;;;;23.09;45.05;101064.08;110261;1264;19411;-40
2023/07/06 09:31:29;;;;;;;;;8.00;6.00;;;;;23.07;44.90;101063.36;110227;1264;18588;-40
2023/07/06 09:33:58;;;;;;;;;6.00;6.00;;;;;23.08;44.89;101066.52;110204;1264;18603;-40
2023/07/06 09:36:26;;;;;;;;;9.00;8.00;;;;;23.13;44.83;101068.30;110196;1250;19529;-40
2023/07/06 09:38:56;;;;;;;;;6.00;6.00;;;;;23.14;44.69;101068.44;110276;1250;18452;-39
2023/07/06 09:41:24;;;;;;;;;7.00;7.00;;;;;23.12;44.72;101070.88;110260;1249;20565;-39
2023/07/06 09:43:51;;;;;;;;;8.00;6.00;;;;;23.16;44.69;101068.30;110120;1264;20735;-40
2023/07/06 09:46:19;;;;;;;;;6.00;6.00;;;;;23.16;44.56;101066.29;110246;1250;22717;-39
2023/07/06 09:48:46;;;;;;;;;7.00;5.50;;;;;23.14;44.53;101072.73;110183;1264;18669;-40
2023/07/06 09:51:14;;;;;;;;;8.00;8.00;;;;;23.21;44.54;101068.63;110191;1265;19326;-39
2023/07/06 09:53:41;;;;;;;;;8.00;8.00;;;;;23.26;44.49;101068.30;110184;1264;18256;-39
2023/07/06 09:56:09;;;;;;;;;8.00;7.00;;;;;23.26;44.32;101065.02;110238;1249;20304;-39
2023/07/06 09:58:36;;;;;;;;;7.00;6.00;;;;;23.23;43.78;101068.04;110238;1264;19579;-41
2023/07/06 10:01:04;;;;;;;;;9.00;9.00;;;;;23.20;43.33;101067.73;110254;1249;22968;-40
2023/07/06 10:03:32;;;;;;;;;8.00;8.00;;;;;23.24;43.33;101065.98;110241;1250;20271;-39
2023/07/06 10:05:59;;;;;;;;;11.50;9.00;;;;;23.38;43.31;101067.10;110210;1264;19296;-39
2023/07/06 10:08:27;;;;;;;;;10.00;8.50;;;;;23.44;43.16;101065.34;110229;1264;19068;-39
2023/07/06 10:10:55;;;;;;;;;10.50;9.00;;;;;23.48;43.34;101058.63;110251;1264;20015;-40
2023/07/06 10:13:22;;;;;;;;;9.00;8.00;;;;;23.37;42.80;101061.04;110268;1264;19721;-39
2023/07/06 10:15:51;;;;;;;;;9.00;8.00;;;;;23.28;42.81;101062.22;110192;1248;20063;-40
2023/07/06 10:18:18;;;;;;;;;9.50;8.50;;;;;23.45;43.08;101052.56;110171;1265;19927;-39
2023/07/06 10:20:47;;;;;;;;;10.00;9.00;;;;;23.60;43.27;101047.86;110220;1264;20913;-39
2023/07/06 10:23:15;;;;;;;;;9.00;9.00;;;;;23.54;43.20;101044.27;110253;1265;19594;-39
2023/07/06 10:25:42;;;;;;;;;9.00;9.00;;;;;23.51;43.53;101045.46;110232;1256;18944;-39
2023/07/06 10:28:10;;;;;;;;;9.00;9.00;;;;;23.49;43.25;101044.83;110268;1264;20134;-39
2023/07/06 10:30:38;;;;;;;;;8.50;8.00;;;;;23.44;43.44;101037.45;110253;1264;18446;-39
2023/07/06 10:33:06;;;;;;;;;12.00;9.00;;;;;23.57;43.47;101035.87;110197;1264;19994;-38
2023/07/06 10:35:34;;;;;;;;;9.00;9.00;;;;;23.56;43.49;101037.00;110219;1264;20727;-40
2023/07/06 10:38:02;;;;;;;;;9.00;9.00;;;;;23.57;43.49;101040.01;110195;1249;20221;-40
2023/07/06 10:40:29;;;;;;;;;9.00;8.00;;;;;23.69;43.32;101033.08;110241;1256;22220;-40
2023/07/06 10:42:57;;;;;;;;;9.50;8.50;;;;;23.75;43.12;101037.73;110241;1256;20546;-39
2023/07/06 10:45:25;;;;;;;;;9.50;9.00;;;;;23.74;42.99;101042.79;110192;1251;18334;-40
2023/07/06 10:47:53;;;;;;;;;8.00;8.00;;;;;23.76;42.84;101040.33;110199;1264;18623;-40
2023/07/06 10:50:22;;;;;;;;;9.00;9.00;;;;;23.86;42.75;101045.30;110265;1250;20970;-40
2023/07/06 10:52:50;;;;;;;;;6.00;6.00;;;;;23.95;42.66;101051.20;110238;1264;19578;-40
2023/07/06 10:55:18;;;;;;;;;5.00;5.00;;;;;23.93;42.25;101044.02;110122;1250;20016;-40
2023/07/06 10:57:47;;;;;;;;;8.33;8.33;;;;;23.91;42.36;101042.60;110119;1264;19364;-40
2023/07/06 11:00:14;;;;;;;;;8.00;6.00;;;;;23.95;42.49;101041.55;110138;1262;19758;-40
2023/07/06 11:02:43;;;;;;;;;7.00;6.00;;;;;23.98;42.29;101049.59;110126;1250;20073;-40
2023/07/06 11:05:10;;;;;;;;;8.00;6.67;;;;;24.00;42.38;101048.18;110147;1265;20994;-40
2023/07/06 11:07:39;;;;;;;;;8.00;8.00;;;;;24.02;42.09;101048.71;110137;1251;18249;-40
2023/07/06 11:10:07;;;;;;;;;8.00;7.33;;;;;23.96;42.47;101053.81;110146;1256;18706;-40
2023/07/06 11:12:34;;;;;;;;;7.67;7.33;;;;;23.95;42.62;101051.88;110143;1264;19705;-40